Time;durP1;ratioP1;P1;durP2;ratioP2;P2;SDS_P1;SDS_P2;PMS_P1;PMS_P2;Temp;Humidity;BMP_temperature;BMP_pressure;BME280_temperature;BME280_humidity;BME280_pressure;Samples;Min_cycle;Max_cycle;Signal;HPM_P1;HPM_P2
2022/12/12 00:02:22;;;;;;;76.07;36.13;;;;;;;;;;5022784;28;20033;-79
2022/12/12 00:04:48;;;;;;;76.03;36.00;;;;;;;;;;5039752;28;20078;-76
2022/12/12 00:07:14;;;;;;;75.05;35.58;;;;;;;;;;5039784;28;20086;-75
2022/12/12 00:09:40;;;;;;;82.22;34.58;;;;;;;;;;5038759;28;20010;-74
2022/12/12 00:12:06;;;;;;;76.60;33.42;;;;;;;;;;5039743;28;20022;-75
2022/12/12 00:14:32;;;;;;;75.35;34.45;;;;;;;;;;5039361;28;20018;-74
2022/12/12 00:16:58;;;;;;;71.03;33.08;;;;;;;;;;5037257;28;20053;-77
2022/12/12 00:19:24;;;;;;;81.78;35.28;;;;;;;;;;5033901;28;20049;-78
2022/12/12 00:21:50;;;;;;;74.55;34.05;;;;;;;;;;5033122;28;20105;-78
2022/12/12 00:24:16;;;;;;;76.57;35.30;;;;;;;;;;5030314;28;20033;-77
2022/12/12 00:26:42;;;;;;;82.47;35.67;;;;;;;;;;5031255;28;20018;-78
2022/12/12 00:29:08;;;;;;;76.97;35.53;;;;;;;;;;5038512;28;20018;-78
2022/12/12 00:31:34;;;;;;;74.88;35.63;;;;;;;;;;5038080;28;20022;-79
2022/12/12 00:34:00;;;;;;;74.70;36.05;;;;;;;;;;5039460;28;20018;-78
2022/12/12 00:36:28;;;;;;;77.15;36.53;;;;;;;;;;5035163;28;20079;-78
2022/12/12 00:38:54;;;;;;;77.47;34.75;;;;;;;;;;5030116;28;20021;-78
2022/12/12 00:41:20;;;;;;;78.85;35.05;;;;;;;;;;5033433;28;20060;-78
2022/12/12 00:43:46;;;;;;;76.03;35.13;;;;;;;;;;5021023;28;20489;-78
2022/12/12 00:46:14;;;;;;;74.30;34.75;;;;;;;;;;5021707;28;20510;-78
2022/12/12 00:48:40;;;;;;;72.28;33.15;;;;;;;;;;5022182;28;20080;-76
2022/12/12 00:51:10;;;;;;;77.68;34.47;;;;;;;;;;5029014;28;20053;-78
2022/12/12 00:53:37;;;;;;;74.38;35.40;;;;;;;;;;5020452;28;20026;-79
2022/12/12 00:56:03;;;;;;;84.20;37.97;;;;;;;;;;5016595;28;20026;-78
2022/12/12 00:58:29;;;;;;;78.15;36.92;;;;;;;;;;5016551;28;20050;-78
2022/12/12 01:00:56;;;;;;;78.93;35.95;;;;;;;;;;5013637;28;20041;-78
2022/12/12 01:03:22;;;;;;;76.35;35.42;;;;;;;;;;5023800;28;20029;-78
2022/12/12 01:05:48;;;;;;;78.93;36.00;;;;;;;;;;5014657;28;20120;-79
2022/12/12 01:08:14;;;;;;;75.30;34.60;;;;;;;;;;5018322;28;20508;-78
2022/12/12 01:10:40;;;;;;;69.00;33.25;;;;;;;;;;5020477;28;20076;-78
2022/12/12 01:13:06;;;;;;;76.57;35.33;;;;;;;;;;5022556;28;20030;-78
2022/12/12 01:15:32;;;;;;;76.90;36.03;;;;;;;;;;5024362;28;20026;-78
2022/12/12 01:17:58;;;;;;;76.63;34.10;;;;;;;;;;5021846;28;20109;-78
2022/12/12 01:20:25;;;;;;;76.82;34.25;;;;;;;;;;5028593;28;20048;-78
2022/12/12 01:22:52;;;;;;;80.32;35.10;;;;;;;;;;5030606;28;20025;-78
2022/12/12 01:25:19;;;;;;;76.90;35.53;;;;;;;;;;5030752;28;20037;-78
2022/12/12 01:27:45;;;;;;;80.18;35.92;;;;;;;;;;5029162;28;20029;-78
2022/12/12 01:30:12;;;;;;;76.72;36.08;;;;;;;;;;5030800;28;20060;-78
2022/12/12 01:32:38;;;;;;;72.53;34.80;;;;;;;;;;5030545;28;20097;-78
2022/12/12 01:35:07;;;;;;;82.03;36.15;;;;;;;;;;5036685;28;20081;-78
2022/12/12 01:37:33;;;;;;;75.90;35.03;;;;;;;;;;5034409;28;20010;-78
2022/12/12 01:39:59;;;;;;;77.55;35.22;;;;;;;;;;5026899;28;20069;-78
2022/12/12 01:42:25;;;;;;;72.55;34.85;;;;;;;;;;5031728;28;20025;-78
2022/12/12 01:44:52;;;;;;;75.07;33.20;;;;;;;;;;5017704;28;20569;-79
2022/12/12 01:47:20;;;;;;;71.90;34.17;;;;;;;;;;5018204;28;20038;-79
2022/12/12 01:49:48;;;;;;;83.15;35.15;;;;;;;;;;5021781;28;20086;-78
2022/12/12 01:52:17;;;;;;;77.55;34.80;;;;;;;;;;5024246;28;20034;-79
2022/12/12 01:54:44;;;;;;;77.82;34.72;;;;;;;;;;5022667;28;20033;-78
2022/12/12 01:57:14;;;;;;;80.70;35.20;;;;;;;;;;5022419;28;20104;-77
2022/12/12 01:59:41;;;;;;;81.25;35.53;;;;;;;;;;5017299;28;20081;-78
2022/12/12 02:02:08;;;;;;;83.80;36.45;;;;;;;;;;5016544;28;20394;-79
2022/12/12 02:04:34;;;;;;;77.68;36.75;;;;;;;;;;5016470;28;20148;-78
2022/12/12 02:07:00;;;;;;;73.43;34.28;;;;;;;;;;5016105;28;20030;-78
2022/12/12 02:09:26;;;;;;;82.40;35.70;;;;;;;;;;5016617;28;20110;-78
2022/12/12 02:11:54;;;;;;;75.65;34.15;;;;;;;;;;5019407;28;20025;-78
2022/12/12 02:14:31;;;;;;;78.40;35.00;;;;;;;;;;5023048;28;20026;-78
2022/12/12 02:17:00;;;;;;;80.68;35.78;;;;;;;;;;5018917;28;20044;-78
2022/12/12 02:19:29;;;;;;;80.82;36.15;;;;;;;;;;5019501;28;20057;-78
2022/12/12 02:22:01;;;;;;;77.13;35.03;;;;;;;;;;5019545;28;20502;-78
2022/12/12 02:24:36;;;;;;;75.07;35.03;;;;;;;;;;5019380;28;20479;-78
2022/12/12 02:27:20;;;;;;;75.07;34.83;;;;;;;;;;5016925;28;20030;-78
2022/12/12 02:30:00;;;;;;;86.45;36.42;;;;;;;;;;5015116;28;20041;-77
2022/12/12 02:32:44;;;;;;;75.32;34.08;;;;;;;;;;5016679;28;20037;-76
2022/12/12 02:35:15;;;;;;;77.20;35.17;;;;;;;;;;5022070;28;20033;-78
2022/12/12 02:37:49;;;;;;;80.20;35.50;;;;;;;;;;5021015;28;20260;-78
2022/12/12 02:40:20;;;;;;;79.53;36.10;;;;;;;;;;5014580;28;20402;-78
2022/12/12 02:42:45;;;;;;;76.63;35.15;;;;;;;;;;5016453;28;20268;-78
2022/12/12 02:45:31;;;;;;;77.63;34.92;;;;;;;;;;5015263;28;20026;-77
2022/12/12 02:48:10;;;;;;;86.55;36.65;;;;;;;;;;5015149;28;20030;-78
2022/12/12 02:50:38;;;;;;;80.25;35.97;;;;;;;;;;5013644;28;20553;-79
2022/12/12 02:53:05;;;;;;;79.13;36.92;;;;;;;;;;5017164;28;20030;-77
2022/12/12 02:55:31;;;;;;;81.63;36.28;;;;;;;;;;5027789;28;20060;-78
2022/12/12 02:57:57;;;;;;;81.85;35.97;;;;;;;;;;5024282;28;20085;-78
2022/12/12 03:00:23;;;;;;;80.28;35.83;;;;;;;;;;5021460;28;20110;-78
2022/12/12 03:02:49;;;;;;;77.40;35.42;;;;;;;;;;5023672;28;20053;-79
2022/12/12 03:08:24;;;;;;;82.63;35.45;;;;;;;;;;5025810;28;20041;-79
2022/12/12 03:10:56;;;;;;;83.68;34.83;;;;;;;;;;5022307;28;20117;-78
2022/12/12 03:13:32;;;;;;;81.65;35.67;;;;;;;;;;5021958;28;20474;-77
2022/12/12 03:15:58;;;;;;;85.28;37.50;;;;;;;;;;5022020;28;20061;-79
2022/12/12 03:18:33;;;;;;;84.22;36.50;;;;;;;;;;5025719;28;20030;-79
2022/12/12 03:21:08;;;;;;;85.10;35.47;;;;;;;;;;5022755;28;20037;-82
2022/12/12 03:23:38;;;;;;;97.03;37.72;;;;;;;;;;5025259;28;20542;-81
2022/12/12 03:26:20;;;;;;;104.35;39.30;;;;;;;;;;5022351;28;20069;-81
2022/12/12 03:28:48;;;;;;;92.82;37.95;;;;;;;;;;5023199;28;20030;-81
2022/12/12 03:31:17;;;;;;;89.90;37.15;;;;;;;;;;5026664;28;20065;-79
2022/12/12 03:33:49;;;;;;;93.75;38.38;;;;;;;;;;5040711;28;20908;-79
2022/12/12 03:36:19;;;;;;;90.78;37.45;;;;;;;;;;5040407;28;20073;-78
2022/12/12 03:38:55;;;;;;;96.78;40.03;;;;;;;;;;5039711;28;20046;-78
2022/12/12 03:41:22;;;;;;;94.47;38.78;;;;;;;;;;5029326;28;20467;-79
2022/12/12 03:43:55;;;;;;;90.90;38.45;;;;;;;;;;5020710;28;20025;-78
2022/12/12 03:46:25;;;;;;;91.40;37.38;;;;;;;;;;5031007;28;20033;-78
2022/12/12 03:48:54;;;;;;;88.60;38.53;;;;;;;;;;5025492;28;20026;-78
2022/12/12 03:51:26;;;;;;;97.32;38.78;;;;;;;;;;5022618;28;20022;-78
2022/12/12 03:54:01;;;;;;;94.85;39.03;;;;;;;;;;5019038;28;20034;-78
2022/12/12 03:56:33;;;;;;;95.80;39.75;;;;;;;;;;5020270;28;20018;-79
2022/12/12 03:59:02;;;;;;;98.05;40.05;;;;;;;;;;5019065;28;20033;-78
2022/12/12 04:01:34;;;;;;;100.05;39.35;;;;;;;;;;5020150;28;20368;-79
2022/12/12 04:04:00;;;;;;;93.22;37.13;;;;;;;;;;5024923;28;20049;-78
2022/12/12 04:06:33;;;;;;;89.55;37.20;;;;;;;;;;5034487;28;20018;-78
2022/12/12 04:14:44;;;;;;;87.60;37.42;;;;;;;;;;5028949;28;20153;-78
2022/12/12 04:17:12;;;;;;;84.53;35.63;;;;;;;;;;5031780;28;20085;-77
2022/12/12 04:25:24;;;;;;;86.35;36.85;;;;;;;;;;5031494;28;20045;-77
2022/12/12 04:27:52;;;;;;;87.45;36.60;;;;;;;;;;5031041;28;20014;-77
2022/12/12 04:30:18;;;;;;;81.75;36.40;;;;;;;;;;5031443;28;20030;-78
2022/12/12 04:32:47;;;;;;;85.10;36.92;;;;;;;;;;5029671;28;20029;-76
2022/12/12 04:35:29;;;;;;;86.57;37.88;;;;;;;;;;5028130;28;20109;-78
2022/12/12 04:37:57;;;;;;;91.15;39.28;;;;;;;;;;5024893;28;20497;-78
2022/12/12 04:40:31;;;;;;;87.25;38.17;;;;;;;;;;5025868;28;20053;-77
2022/12/12 04:43:09;;;;;;;90.53;39.95;;;;;;;;;;5031592;28;20052;-76
2022/12/12 04:45:38;;;;;;;84.78;37.33;;;;;;;;;;5036719;28;20042;-77
2022/12/12 04:48:05;;;;;;;79.68;37.05;;;;;;;;;;5036703;28;20030;-77
2022/12/12 04:50:32;;;;;;;87.00;37.80;;;;;;;;;;5035682;28;20049;-76
2022/12/12 04:53:00;;;;;;;89.32;39.33;;;;;;;;;;5037533;28;20030;-77
2022/12/12 04:55:28;;;;;;;85.90;38.80;;;;;;;;;;5036054;28;20440;-77
2022/12/12 04:57:54;;;;;;;85.93;39.45;;;;;;;;;;5027702;28;20423;-78
2022/12/12 05:00:21;;;;;;;90.90;37.47;;;;;;;;;;5024742;28;20034;-78
2022/12/12 05:02:50;;;;;;;92.68;39.28;;;;;;;;;;5025869;28;20034;-79
2022/12/12 05:05:28;;;;;;;99.90;41.90;;;;;;;;;;5018071;28;20048;-79
2022/12/12 05:08:02;;;;;;;100.15;42.95;;;;;;;;;;5020091;28;20499;-78
2022/12/12 05:10:28;;;;;;;;;;;;;;;;;;5020217;28;20030;-80
2022/12/12 05:12:58;;;;;;;96.22;39.58;;;;;;;;;;5019053;28;20358;-80
2022/12/12 05:15:24;;;;;;;92.93;39.28;;;;;;;;;;5023376;28;20053;-79
2022/12/12 05:17:58;;;;;;;97.10;40.08;;;;;;;;;;5018627;28;20379;-78
2022/12/12 05:20:24;;;;;;;88.93;38.90;;;;;;;;;;5015796;28;20041;-76
2022/12/12 05:22:50;;;;;;;90.50;38.45;;;;;;;;;;5014812;28;20037;-75
2022/12/12 05:25:16;;;;;;;85.05;37.97;;;;;;;;;;5032400;28;20041;-78
2022/12/12 05:27:42;;;;;;;96.60;38.85;;;;;;;;;;5041633;28;20040;-79
2022/12/12 05:30:08;;;;;;;118.07;41.05;;;;;;;;;;5020332;28;20116;-81
2022/12/12 05:32:34;;;;;;;103.22;41.13;;;;;;;;;;5028131;28;20022;-78
2022/12/12 05:35:00;;;;;;;97.88;40.50;;;;;;;;;;5020555;28;20094;-77
2022/12/12 05:37:27;;;;;;;96.80;39.80;;;;;;;;;;5026776;28;20017;-78
2022/12/12 05:39:53;;;;;;;91.88;39.38;;;;;;;;;;5030463;28;20036;-79
2022/12/12 05:42:19;;;;;;;90.68;39.38;;;;;;;;;;5034367;28;20026;-79
2022/12/12 05:44:45;;;;;;;89.03;37.22;;;;;;;;;;5032565;28;20021;-79
2022/12/12 05:47:12;;;;;;;85.82;36.15;;;;;;;;;;5023205;28;20030;-78
2022/12/12 05:49:37;;;;;;;85.40;38.30;;;;;;;;;;5021558;28;20022;-78
2022/12/12 05:52:04;;;;;;;87.63;36.47;;;;;;;;;;5022843;28;20037;-76
2022/12/12 05:54:30;;;;;;;88.88;38.22;;;;;;;;;;5025450;28;20029;-79
2022/12/12 05:56:56;;;;;;;89.03;36.60;;;;;;;;;;5019993;28;20030;-78
2022/12/12 05:59:22;;;;;;;86.72;38.85;;;;;;;;;;5019543;28;20029;-78
2022/12/12 06:01:48;;;;;;;90.28;38.53;;;;;;;;;;5029566;28;20025;-79
2022/12/12 06:04:14;;;;;;;89.50;38.45;;;;;;;;;;5031602;28;20045;-78
2022/12/12 06:06:40;;;;;;;88.65;38.88;;;;;;;;;;5032506;28;20029;-77
2022/12/12 06:09:06;;;;;;;86.07;36.63;;;;;;;;;;5031973;28;20073;-77
2022/12/12 06:11:32;;;;;;;91.95;39.03;;;;;;;;;;5030630;28;20074;-78
2022/12/12 06:13:58;;;;;;;100.72;40.38;;;;;;;;;;5032586;28;20060;-78
2022/12/12 06:16:24;;;;;;;87.80;36.38;;;;;;;;;;5031259;28;20025;-78
2022/12/12 06:18:51;;;;;;;86.28;36.97;;;;;;;;;;5018079;28;20044;-78
2022/12/12 06:21:17;;;;;;;91.68;38.55;;;;;;;;;;4981557;28;1093159;-78
2022/12/12 06:23:43;;;;;;;95.40;39.65;;;;;;;;;;5018267;28;20029;-77
2022/12/12 06:26:10;;;;;;;92.55;39.08;;;;;;;;;;5013751;28;20040;-75
2022/12/12 06:28:37;;;;;;;90.80;38.90;;;;;;;;;;5013436;28;20383;-75
2022/12/12 06:31:03;;;;;;;89.88;38.78;;;;;;;;;;5014347;28;20113;-75
2022/12/12 06:33:31;;;;;;;93.80;38.38;;;;;;;;;;5014897;28;20476;-76
2022/12/12 06:36:23;;;;;;;91.47;38.75;;;;;;;;;;5025667;28;20030;-78
2022/12/12 06:38:57;;;;;;;92.55;38.92;;;;;;;;;;5011065;28;20022;-77
2022/12/12 06:41:24;;;;;;;61.60;28.33;;;;;;;;;;5016050;28;20057;-76
2022/12/12 06:43:50;;;;;;;91.55;40.53;;;;;;;;;;5013726;28;20022;-77
2022/12/12 06:46:17;;;;;;;88.93;39.78;;;;;;;;;;5012847;28;20438;-79
2022/12/12 06:48:43;;;;;;;93.50;39.10;;;;;;;;;;5016205;28;20102;-76
2022/12/12 06:51:11;;;;;;;94.78;39.10;;;;;;;;;;5015844;28;20045;-77
2022/12/12 06:53:37;;;;;;;97.63;40.50;;;;;;;;;;5015002;28;20543;-76
2022/12/12 06:56:10;;;;;;;95.20;39.75;;;;;;;;;;5012305;28;20507;-76
2022/12/12 06:58:36;;;;;;;91.65;41.10;;;;;;;;;;5005486;28;20383;-76
2022/12/12 07:01:02;;;;;;;95.13;39.42;;;;;;;;;;5016368;28;20049;-76
2022/12/12 07:03:28;;;;;;;88.75;39.58;;;;;;;;;;5017738;28;20041;-77
2022/12/12 07:05:54;;;;;;;103.03;40.92;;;;;;;;;;5020267;28;20033;-77
2022/12/12 07:08:20;;;;;;;102.03;40.28;;;;;;;;;;5019476;28;20033;-76
2022/12/12 07:10:46;;;;;;;95.88;40.45;;;;;;;;;;5017353;28;20030;-77
2022/12/12 07:13:12;;;;;;;99.45;41.25;;;;;;;;;;5016236;28;20175;-76
2022/12/12 07:15:45;;;;;;;99.72;42.88;;;;;;;;;;5016878;28;20062;-77
2022/12/12 07:18:12;;;;;;;98.22;42.13;;;;;;;;;;5020847;28;20112;-79
2022/12/12 07:20:39;;;;;;;93.05;40.63;;;;;;;;;;5022254;28;20052;-77
2022/12/12 07:23:05;;;;;;;96.05;40.25;;;;;;;;;;5025604;28;20051;-77
2022/12/12 07:25:31;;;;;;;93.43;42.40;;;;;;;;;;5036205;28;20040;-76
2022/12/12 07:27:57;;;;;;;93.20;39.60;;;;;;;;;;5021265;28;20036;-77
2022/12/12 07:30:23;;;;;;;88.45;37.97;;;;;;;;;;5032071;28;20421;-73
2022/12/12 07:32:50;;;;;;;87.90;36.78;;;;;;;;;;5018303;28;20384;-74
2022/12/12 07:35:16;;;;;;;88.25;39.40;;;;;;;;;;5012785;28;20084;-74
2022/12/12 07:37:42;;;;;;;90.47;38.20;;;;;;;;;;5013335;28;20018;-74
2022/12/12 07:40:08;;;;;;;91.60;37.63;;;;;;;;;;5017963;28;20439;-73
2022/12/12 07:42:34;;;;;;;91.13;38.08;;;;;;;;;;5016004;28;20034;-73
2022/12/12 07:45:00;;;;;;;93.18;39.67;;;;;;;;;;5025260;28;20044;-75
2022/12/12 07:47:26;;;;;;;91.60;40.17;;;;;;;;;;5037348;28;20042;-73
2022/12/12 07:49:53;;;;;;;83.97;37.30;;;;;;;;;;5031675;28;20052;-74
2022/12/12 07:52:19;;;;;;;90.28;40.10;;;;;;;;;;5022402;28;20029;-74
2022/12/12 07:54:45;;;;;;;76.80;34.03;;;;;;;;;;5023799;28;20030;-73
2022/12/12 07:57:11;;;;;;;95.15;39.45;;;;;;;;;;5021028;28;20060;-77
2022/12/12 07:59:37;;;;;;;97.53;40.80;;;;;;;;;;5035957;28;20045;-76
2022/12/12 08:02:03;;;;;;;109.82;45.00;;;;;;;;;;5037648;28;20032;-75
2022/12/12 08:04:29;;;;;;;109.15;42.30;;;;;;;;;;5038884;28;20013;-75
2022/12/12 08:06:56;;;;;;;95.18;40.45;;;;;;;;;;5037815;28;20037;-78
2022/12/12 08:09:22;;;;;;;107.03;43.00;;;;;;;;;;5039328;28;20029;-77
2022/12/12 08:11:48;;;;;;;101.75;40.50;;;;;;;;;;5040328;28;20030;-76
2022/12/12 08:14:14;;;;;;;93.07;39.80;;;;;;;;;;5039364;28;20040;-76
2022/12/12 08:16:40;;;;;;;100.88;41.65;;;;;;;;;;5039799;28;20101;-76
2022/12/12 08:19:06;;;;;;;89.55;37.33;;;;;;;;;;5039848;28;20010;-76
2022/12/12 08:21:32;;;;;;;96.60;39.78;;;;;;;;;;5038793;28;20039;-79
2022/12/12 08:23:59;;;;;;;108.28;44.53;;;;;;;;;;5031036;28;20384;-78
2022/12/12 08:26:25;;;;;;;97.35;41.63;;;;;;;;;;5039615;28;20030;-76
2022/12/12 08:28:51;;;;;;;92.70;40.78;;;;;;;;;;5039854;28;20014;-77
2022/12/12 08:31:19;;;;;;;91.03;39.90;;;;;;;;;;5039479;28;20026;-76
2022/12/12 08:33:45;;;;;;;101.80;41.92;;;;;;;;;;5039249;28;20026;-77
2022/12/12 08:36:13;;;;;;;94.10;38.50;;;;;;;;;;5039041;28;20018;-77
2022/12/12 08:38:38;;;;;;;93.28;39.65;;;;;;;;;;5029571;28;20199;-79
2022/12/12 08:41:05;;;;;;;101.53;41.63;;;;;;;;;;5028443;28;20494;-80
2022/12/12 08:43:30;;;;;;;98.35;40.88;;;;;;;;;;5034624;28;20509;-77
2022/12/12 08:46:00;;;;;;;95.00;40.17;;;;;;;;;;5033757;28;20034;-78
2022/12/12 08:48:26;;;;;;;92.07;40.78;;;;;;;;;;5032632;28;20057;-78
2022/12/12 08:50:52;;;;;;;99.25;41.08;;;;;;;;;;5027554;28;20033;-78
2022/12/12 08:53:18;;;;;;;90.20;38.50;;;;;;;;;;5027723;28;20021;-76
2022/12/12 08:55:44;;;;;;;90.95;38.65;;;;;;;;;;5037918;28;20029;-77
2022/12/12 08:58:10;;;;;;;90.72;38.85;;;;;;;;;;5032975;28;20081;-78
2022/12/12 09:00:36;;;;;;;88.78;39.67;;;;;;;;;;5022741;28;20026;-78
2022/12/12 09:03:02;;;;;;;88.72;40.72;;;;;;;;;;5022915;28;20036;-78
2022/12/12 09:05:28;;;;;;;91.68;40.25;;;;;;;;;;5022929;28;20030;-80
2022/12/12 09:07:54;;;;;;;87.38;39.00;;;;;;;;;;5022343;28;20048;-79
2022/12/12 09:10:20;;;;;;;94.00;40.92;;;;;;;;;;5027263;28;20025;-78
2022/12/12 09:12:46;;;;;;;98.45;41.25;;;;;;;;;;5034308;28;20120;-77
2022/12/12 09:15:13;;;;;;;88.15;38.90;;;;;;;;;;5035510;28;20025;-76
2022/12/12 09:17:39;;;;;;;92.05;40.47;;;;;;;;;;5038193;28;20063;-76
2022/12/12 09:20:06;;;;;;;88.40;39.00;;;;;;;;;;5038270;28;20034;-74
2022/12/12 09:22:32;;;;;;;93.47;39.80;;;;;;;;;;5037107;28;20052;-76
2022/12/12 09:24:58;;;;;;;87.78;40.38;;;;;;;;;;5031063;28;20018;-77
2022/12/12 09:27:24;;;;;;;95.72;42.22;;;;;;;;;;5031942;28;20340;-78
2022/12/12 09:29:50;;;;;;;97.70;40.80;;;;;;;;;;5033040;28;20030;-77
2022/12/12 09:32:16;;;;;;;85.93;39.17;;;;;;;;;;5031852;28;20060;-77
2022/12/12 09:34:42;;;;;;;83.93;37.53;;;;;;;;;;5033528;28;20025;-77
2022/12/12 09:37:08;;;;;;;89.88;39.08;;;;;;;;;;5034072;28;20050;-78
2022/12/12 09:39:34;;;;;;;76.20;36.47;;;;;;;;;;5028373;28;20078;-77
2022/12/12 09:42:09;;;;;;;85.35;39.22;;;;;;;;;;5027707;28;20029;-80
2022/12/12 09:44:35;;;;;;;98.38;42.45;;;;;;;;;;5026433;28;20085;-77
2022/12/12 09:47:04;;;;;;;89.22;38.67;;;;;;;;;;5034930;28;20053;-76
2022/12/12 09:49:42;;;;;;;87.78;38.92;;;;;;;;;;5033736;28;20029;-78
2022/12/12 09:52:12;;;;;;;90.68;38.80;;;;;;;;;;5027215;28;20113;-79
2022/12/12 09:54:38;;;;;;;82.75;35.40;;;;;;;;;;5021695;28;20081;-80
2022/12/12 09:57:04;;;;;;;78.57;35.30;;;;;;;;;;5023989;28;20025;-78
2022/12/12 09:59:43;;;;;;;78.45;34.50;;;;;;;;;;5021588;28;20022;-79
2022/12/12 10:02:09;;;;;;;68.43;31.50;;;;;;;;;;5021937;28;20037;-78
2022/12/12 10:04:39;;;;;;;68.82;30.92;;;;;;;;;;5026391;28;20033;-77
2022/12/12 10:07:23;;;;;;;67.65;29.77;;;;;;;;;;5034267;28;20033;-77
2022/12/12 10:10:05;;;;;;;67.97;32.13;;;;;;;;;;5035272;28;20054;-77
2022/12/12 10:12:31;;;;;;;65.32;29.52;;;;;;;;;;5031592;28;20174;-80
2022/12/12 10:15:01;;;;;;;76.32;30.75;;;;;;;;;;5029166;28;20030;-77
2022/12/12 10:17:30;;;;;;;64.15;29.63;;;;;;;;;;5024584;28;20356;-78
2022/12/12 10:20:08;;;;;;;62.50;29.95;;;;;;;;;;5021191;28;20108;-81
2022/12/12 10:22:43;;;;;;;65.07;29.55;;;;;;;;;;5029762;28;20038;-78
2022/12/12 10:25:20;;;;;;;78.53;33.55;;;;;;;;;;5028579;28;20026;-78
2022/12/12 10:27:49;;;;;;;73.07;33.95;;;;;;;;;;5029202;28;20093;-79
2022/12/12 10:30:17;;;;;;;71.13;33.05;;;;;;;;;;5026504;28;20033;-77
2022/12/12 10:33:03;;;;;;;78.18;35.22;;;;;;;;;;5021312;28;20053;-79
2022/12/12 10:35:47;;;;;;;75.68;33.70;;;;;;;;;;5027204;28;20022;-79
2022/12/12 10:38:21;;;;;;;74.18;35.58;;;;;;;;;;5032476;28;20065;-77
2022/12/12 10:41:09;;;;;;;55.28;24.80;;;;;;;;;;5031240;28;20089;-77
2022/12/12 10:43:58;;;;;;;75.03;34.03;;;;;;;;;;5033954;28;20049;-77
2022/12/12 10:46:30;;;;;;;73.78;32.92;;;;;;;;;;5028585;28;20105;-77
2022/12/12 10:48:56;;;;;;;71.70;31.98;;;;;;;;;;5030709;28;20022;-77
2022/12/12 10:51:26;;;;;;;67.20;31.15;;;;;;;;;;5028891;28;20037;-79
2022/12/12 10:53:52;;;;;;;67.72;31.52;;;;;;;;;;5027931;28;20514;-78
2022/12/12 10:56:23;;;;;;;78.82;33.95;;;;;;;;;;5026728;28;20034;-79
2022/12/12 10:58:53;;;;;;;71.45;31.48;;;;;;;;;;5021739;28;20021;-80
2022/12/12 11:01:19;;;;;;;69.95;32.75;;;;;;;;;;5019742;28;20395;-78
2022/12/12 11:03:47;;;;;;;69.10;30.80;;;;;;;;;;5028070;28;20037;-79
2022/12/12 11:06:16;;;;;;;75.90;31.65;;;;;;;;;;5028431;28;20026;-78
2022/12/12 11:08:52;;;;;;;66.32;29.98;;;;;;;;;;5026893;28;20246;-79
2022/12/12 11:11:28;;;;;;;73.60;32.47;;;;;;;;;;5019920;28;20088;-80
2022/12/12 11:13:56;;;;;;;74.22;31.23;;;;;;;;;;5017032;28;20468;-76
2022/12/12 11:16:30;;;;;;;65.57;30.55;;;;;;;;;;5015988;28;20093;-78
2022/12/12 11:19:04;;;;;;;57.03;25.47;;;;;;;;;;5017736;28;20029;-77
2022/12/12 11:21:35;;;;;;;63.15;30.73;;;;;;;;;;5018837;28;20041;-82
2022/12/12 11:24:06;;;;;;;60.33;28.52;;;;;;;;;;5021127;28;20049;-77
2022/12/12 11:26:38;;;;;;;54.65;26.35;;;;;;;;;;5022054;28;20030;-76
2022/12/12 11:29:05;;;;;;;54.97;26.48;;;;;;;;;;5026510;28;20030;-77
2022/12/12 11:31:34;;;;;;;60.53;28.35;;;;;;;;;;5025016;28;20030;-76
2022/12/12 11:34:05;;;;;;;66.57;31.63;;;;;;;;;;5023776;28;20072;-76
2022/12/12 11:36:33;;;;;;;62.40;28.63;;;;;;;;;;5025482;28;20022;-76
2022/12/12 11:39:00;;;;;;;70.43;29.50;;;;;;;;;;5023097;28;20029;-76
2022/12/12 11:41:26;;;;;;;65.68;30.10;;;;;;;;;;5021240;28;20025;-78
2022/12/12 11:43:54;;;;;;;54.15;27.55;;;;;;;;;;5018087;28;20026;-77
2022/12/12 11:46:23;;;;;;;62.60;29.33;;;;;;;;;;5020849;28;20093;-76
2022/12/12 11:48:52;;;;;;;63.55;29.77;;;;;;;;;;5026389;28;20037;-77
2022/12/12 11:51:33;;;;;;;59.60;29.35;;;;;;;;;;5024664;28;20037;-77
2022/12/12 11:54:00;;;;;;;65.53;30.85;;;;;;;;;;5024071;28;20168;-78
2022/12/12 11:56:37;;;;;;;65.43;31.20;;;;;;;;;;5023040;28;20065;-78
2022/12/12 11:59:22;;;;;;;67.28;31.40;;;;;;;;;;5025928;28;20014;-78
2022/12/12 12:01:51;;;;;;;65.32;31.10;;;;;;;;;;5017650;28;20394;-76
2022/12/12 12:04:37;;;;;;;68.07;32.72;;;;;;;;;;5017125;28;20101;-78
2022/12/12 12:07:22;;;;;;;65.65;32.40;;;;;;;;;;5014885;28;20407;-75
2022/12/12 12:09:51;;;;;;;65.15;31.10;;;;;;;;;;5016284;28;20072;-76
2022/12/12 12:12:20;;;;;;;68.60;33.03;;;;;;;;;;5020921;28;20040;-78
2022/12/12 12:14:52;;;;;;;65.60;32.58;;;;;;;;;;5021795;28;20057;-77
2022/12/12 12:17:18;;;;;;;69.32;30.98;;;;;;;;;;5023139;28;20026;-77
2022/12/12 12:19:50;;;;;;;70.28;32.35;;;;;;;;;;5021558;28;20032;-78
2022/12/12 12:22:32;;;;;;;63.00;29.95;;;;;;;;;;5026720;28;20034;-78
2022/12/12 12:25:10;;;;;;;68.82;31.77;;;;;;;;;;5024498;28;20029;-76
2022/12/12 12:27:36;;;;;;;76.43;36.65;;;;;;;;;;5018803;28;20405;-77
2022/12/12 12:30:16;;;;;;;58.67;30.88;;;;;;;;;;5022401;28;20052;-77
2022/12/12 12:32:42;;;;;;;58.80;30.63;;;;;;;;;;5020080;28;20385;-77
2022/12/12 12:35:23;;;;;;;57.38;28.30;;;;;;;;;;5017586;28;20022;-76
2022/12/12 12:38:09;;;;;;;55.47;29.35;;;;;;;;;;5017720;28;20033;-77
2022/12/12 12:40:47;;;;;;;56.67;29.10;;;;;;;;;;5017110;28;20026;-76
2022/12/12 12:43:28;;;;;;;53.88;28.50;;;;;;;;;;5017005;28;20048;-77
2022/12/12 12:46:09;;;;;;;51.20;27.10;;;;;;;;;;5015188;28;20252;-76
2022/12/12 12:48:38;;;;;;;52.47;27.98;;;;;;;;;;5016751;28;20357;-77
2022/12/12 12:51:08;;;;;;;47.88;27.05;;;;;;;;;;5020297;28;20041;-78
2022/12/12 12:53:40;;;;;;;54.00;28.90;;;;;;;;;;5020831;28;20022;-78
2022/12/12 12:56:23;;;;;;;52.60;28.60;;;;;;;;;;5020415;28;20390;-77
2022/12/12 12:58:50;;;;;;;55.13;30.40;;;;;;;;;;5019751;28;20075;-78
2022/12/12 13:01:34;;;;;;;51.92;28.88;;;;;;;;;;5016280;28;20072;-77
2022/12/12 13:04:02;;;;;;;51.60;27.40;;;;;;;;;;5017698;28;20505;-76
2022/12/12 13:06:44;;;;;;;55.38;28.42;;;;;;;;;;5015428;28;20034;-78
2022/12/12 13:09:32;;;;;;;50.58;27.90;;;;;;;;;;5016081;28;20030;-79
2022/12/12 13:12:01;;;;;;;50.67;28.33;;;;;;;;;;5016690;28;20030;-76
2022/12/12 13:14:42;;;;;;;54.92;30.13;;;;;;;;;;5016874;28;20022;-77
2022/12/12 13:17:14;;;;;;;55.83;30.27;;;;;;;;;;5015512;28;20083;-77
2022/12/12 13:19:42;;;;;;;63.63;33.00;;;;;;;;;;5015056;28;20029;-77
2022/12/12 13:22:17;;;;;;;65.38;33.47;;;;;;;;;;5015881;28;20065;-77
2022/12/12 13:24:58;;;;;;;63.78;33.53;;;;;;;;;;5018687;28;20077;-78
2022/12/12 13:27:26;;;;;;;63.92;33.47;;;;;;;;;;5019268;28;20487;-76
2022/12/12 13:30:01;;;;;;;68.60;34.47;;;;;;;;;;5019416;28;20081;-77
2022/12/12 13:32:50;;;;;;;63.58;32.33;;;;;;;;;;5019229;28;20113;-78
2022/12/12 13:35:29;;;;;;;66.88;32.20;;;;;;;;;;5020494;28;20026;-78
2022/12/12 13:37:55;;;;;;;63.85;31.90;;;;;;;;;;5019173;28;20391;-79
2022/12/12 13:40:24;;;;;;;72.93;34.28;;;;;;;;;;5022732;28;20033;-77
2022/12/12 13:42:52;;;;;;;64.07;31.25;;;;;;;;;;5027968;28;20049;-79
2022/12/12 13:45:36;;;;;;;70.47;33.65;;;;;;;;;;5024409;28;20026;-77
2022/12/12 13:48:02;;;;;;;71.95;34.72;;;;;;;;;;5031038;28;20038;-78
2022/12/12 13:50:28;;;;;;;76.00;34.85;;;;;;;;;;5030694;28;20034;-76
2022/12/12 13:53:07;;;;;;;80.78;35.75;;;;;;;;;;5028262;28;20026;-75
2022/12/12 13:55:34;;;;;;;80.05;34.33;;;;;;;;;;5027946;28;20135;-76
2022/12/12 13:58:04;;;;;;;73.78;33.92;;;;;;;;;;5020269;28;20057;-77
2022/12/12 14:00:36;;;;;;;79.47;36.30;;;;;;;;;;5028961;28;20021;-78
2022/12/12 14:03:16;;;;;;;84.43;36.38;;;;;;;;;;5033756;28;20042;-79
2022/12/12 14:05:41;;;;;;;80.18;35.50;;;;;;;;;;5030009;28;20033;-77
2022/12/12 14:08:07;;;;;;;89.20;36.85;;;;;;;;;;5018352;28;20030;-77
2022/12/12 14:10:39;;;;;;;83.50;36.17;;;;;;;;;;5015512;28;20418;-78
2022/12/12 14:13:23;;;;;;;80.38;35.72;;;;;;;;;;5020776;28;20073;-78
2022/12/12 14:15:59;;;;;;;84.70;36.17;;;;;;;;;;5022738;28;20022;-77
2022/12/12 14:18:54;;;;;;;95.90;40.40;;;;;;;;;;5025381;28;20057;-77
2022/12/12 14:21:35;;;;;;;93.93;37.15;;;;;;;;;;5027312;28;20057;-78
2022/12/12 14:24:21;;;;;;;83.40;34.58;;;;;;;;;;5025273;28;20026;-76
2022/12/12 14:26:48;;;;;;;86.07;35.90;;;;;;;;;;5030867;28;20354;-78
2022/12/12 14:29:17;;;;;;;90.28;36.30;;;;;;;;;;5032580;28;20106;-78
2022/12/12 14:31:49;;;;;;;96.05;37.75;;;;;;;;;;5031159;28;20089;-78
2022/12/12 14:34:21;;;;;;;86.10;36.03;;;;;;;;;;5031610;28;20033;-79
2022/12/12 14:36:51;;;;;;;93.22;38.58;;;;;;;;;;5028071;28;20044;-78
2022/12/12 14:39:26;;;;;;;92.75;39.33;;;;;;;;;;5029041;28;20022;-77
2022/12/12 14:41:52;;;;;;;97.45;39.95;;;;;;;;;;5021398;28;20036;-80
2022/12/12 14:44:25;;;;;;;101.78;39.80;;;;;;;;;;5020245;28;20037;-77
2022/12/12 14:46:51;;;;;;;91.07;37.35;;;;;;;;;;5018989;28;20026;-77